Integrity — WDD7905 — position and weather

sailwx.info

Track history (hours):
 
Tides and Currents Weather Stations Pressure Air Temp Water Temp Dewpoint Dewpoint Depression Visibility Wind Speed Wind Dir Waves Ship Positions

Integrity

Owner: Intrepid Ship Management, jacksonville, FL. More information available from US FCC via Universal Licensing System and Coast Guard Vessel Documentation Center.

Last reported at 2018-May-22 10:53 UTC. Time now 2018-May-22 19:10 UTC.
Position N 29°12' W 094°31'.

Length 208 m; draft 6.8 m.

Type: Towing. MMSI: 368247000.

Date/timePositionNaut miles runAvg speedWind from/ knotsBaromVisibWave heightAir tempDewpointWater temp
2018-May-22 10:53N 29°12' W 094°31'512.1
2018-May-22 10:30N 29°15' W 094°34'611.0
2018-May-22 10:00N 29°19' W 094°39'612.2
2018-May-22 09:30N 29°21' W 094°46'611.1
2018-May-22 09:00N 29°23' W 094°51'2 4.4
2018-May-22 08:30N 29°22' W 094°54'0 0.8
2018-May-22 08:00N 29°22' W 094°54'0 0.0
2018-May-22 07:29N 29°22' W 094°54'0 0.0
2018-May-22 06:59N 29°22' W 094°54'0 0.0
2018-May-22 06:29N 29°22' W 094°54'0 0.0
2018-May-22 05:59N 29°22' W 094°54'0 0.0
2018-May-22 05:29N 29°22' W 094°54'0 0.0
2018-May-22 04:59N 29°22' W 094°54'0 0.0
2018-May-22 04:29N 29°22' W 094°54'0 0.0
2018-May-22 03:59N 29°22' W 094°54'0 0.0
2018-May-21 22:29N 29°22' W 094°54'0 0.0
2018-May-21 21:59N 29°22' W 094°54'0 0.0
2018-May-21 21:29N 29°22' W 094°54'0 0.0
2018-May-21 20:56N 29°22' W 094°54'0 0.0
2018-May-21 20:29N 29°22' W 094°54'0 0.0
2018-May-21 19:59N 29°22' W 094°54'0 0.0
2018-May-21 19:29N 29°22' W 094°54'0 0.0
2018-May-21 18:59N 29°22' W 094°54'0 0.0
2018-May-21 18:30N 29°22' W 094°54'0 0.0
2018-May-21 18:00N 29°22' W 094°54'0 0.0
2018-May-21 17:31N 29°22' W 094°54'0 0.1
2018-May-21 17:00N 29°22' W 094°54'2 4.4
2018-May-21 16:30N 29°23' W 094°52'510.5
2018-May-21 16:00N 29°21' W 094°47'9 2.4
2018-May-21 12:14N 29°19' W 094°36'0 0.0
2018-May-21 11:56N 29°19' W 094°36'0 0.0
2018-May-21 11:17N 29°19' W 094°36'0 0.0
2018-May-21 10:59N 29°19' W 094°36'0 0.0
2018-May-21 10:05N 29°19' W 094°36'0 0.1
2018-May-21 09:59N 29°19' W 094°36'0 0.0
2018-May-21 09:29N 29°19' W 094°36'0 0.0
2018-May-21 08:08N 29°19' W 094°36'0 0.2
2018-May-21 07:47N 29°19' W 094°36'0 0.1
2018-May-21 07:26N 29°19' W 094°36'0 0.0
2018-May-21 06:17N 29°19' W 094°36'0 0.0
2018-May-21 05:59N 29°19' W 094°36'0 0.1
2018-May-21 05:29N 29°19' W 094°36'0 0.0
2018-May-21 04:59N 29°19' W 094°36'0 0.0
2018-May-21 02:32N 29°19' W 094°36'0 0.0
2018-May-21 02:29N 29°19' W 094°36'0 0.0
2018-May-21 01:29N 29°19' W 094°36'0 0.0
2018-May-21 00:41N 29°19' W 094°36'0 0.0
2018-May-21 00:29N 29°19' W 094°36'0 0.0
2018-May-20 23:59N 29°19' W 094°36'0 0.0
2018-May-20 23:29N 29°19' W 094°36'0 0.0
2018-May-20 23:00N 29°19' W 094°36'5 4.8
2018-May-20 21:58N 29°17' W 094°31'4 5.5
2018-May-20 21:19N 29°20' W 094°34'0 0.1
2018-May-20 20:46N 29°20' W 094°34'0 0.0
2018-May-20 19:19N 29°20' W 094°34'0 0.0
2018-May-20 18:10N 29°20' W 094°34'0 0.1
2018-May-20 17:52N 29°20' W 094°34'0 0.0
2018-May-20 17:19N 29°20' W 094°34'0 0.1
2018-May-20 16:55N 29°20' W 094°34'0 0.1
2018-May-20 16:19N 29°20' W 094°34'0 0.0
2018-May-20 15:46N 29°20' W 094°34'0 0.0
2018-May-20 15:19N 29°20' W 094°34'0 0.1
2018-May-20 15:00N 29°20' W 094°34'0 0.1
2018-May-20 14:29N 29°20' W 094°34'  
2018-May-18 06:16N 27°50' W 096°57'0 1.5
2018-May-18 05:58N 27°50' W 096°56'4 7.9
2018-May-18 05:30N 27°47' W 096°54'611.6
2018-May-18 05:00N 27°44' W 096°48'611.7
2018-May-18 04:30N 27°41' W 096°43'611.8
2018-May-18 04:00N 27°38' W 096°37'611.9
2018-May-18 03:30N 27°35' W 096°31'611.4
2018-May-18 02:59N 27°34' W 096°24'611.7
2018-May-18 02:29N 27°35' W 096°18'611.6
2018-May-18 02:00N 27°36' W 096°12'611.8
2018-May-18 01:30N 27°36' W 096°05'611.7
2018-May-18 01:00N 27°37' W 095°59'1811.6
2018-May-17 23:30N 27°38' W 095°39'3511.6
2018-May-17 20:30N 27°41' W 094°60'611.5
2018-May-17 20:00N 27°41' W 094°53'611.4
2018-May-17 19:30N 27°42' W 094°47'611.4
2018-May-17 19:00N 27°42' W 094°40'611.4
2018-May-17 18:30N 27°43' W 094°34'611.4
2018-May-17 18:00N 27°43' W 094°28'611.4
2018-May-17 17:30N 27°43' W 094°21'611.3
2018-May-17 16:59N 27°44' W 094°15'511.4
2018-May-17 16:30N 27°44' W 094°09'611.2
2018-May-17 15:56N 27°45' W 094°01'511.5
2018-May-17 15:30N 27°45' W 093°56'911.4
2018-May-17 14:43N 27°46' W 093°46'311.4
2018-May-17 14:28N 27°46' W 093°42'611.3
2018-May-17 13:58N 27°47' W 093°36'511.5
2018-May-17 13:30N 27°47' W 093°30'611.7
2018-May-17 13:00N 27°48' W 093°24'611.9
2018-May-17 12:28N 27°48' W 093°16'1912.1
2018-May-17 10:54N 27°49' W 092°55'511.9
2018-May-17 10:30N 27°50' W 092°50'611.9
2018-May-17 09:59N 27°50' W 092°43'712.2
2018-May-17 09:25N 27°49' W 092°35'512.2
2018-May-17 09:00N 27°48' W 092°29'612.4
2018-May-17 08:30N 27°46' W 092°23'612.5
2018-May-17 08:00N 27°44' W 092°16'612.5
2018-May-17 07:30N 27°41' W 092°10'612.5
2018-May-17 07:00N 27°39' W 092°03'612.4
2018-May-17 06:30N 27°37' W 091°56'612.1
2018-May-17 06:00N 27°36' W 091°50'611.8
2018-May-17 05:30N 27°34' W 091°43'611.7
2018-May-17 04:58N 27°32' W 091°37'511.7
2018-May-17 04:30N 27°31' W 091°31'611.6
2018-May-17 03:59N 27°29' W 091°24'511.5
2018-May-17 03:30N 27°27' W 091°18'611.3
2018-May-17 02:57N 27°25' W 091°12'511.0
2018-May-17 02:29N 27°23' W 091°06'511.0
2018-May-17 02:00N 27°21' W 091°01'  
2018-May-14 07:41N 25°14' W 080°06'2 8.1
2018-May-14 07:28N 25°16' W 080°05'4 8.0
2018-May-14 07:00N 25°19' W 080°04'4 7.8
2018-May-14 06:30N 25°23' W 080°02'4 8.6
2018-May-14 06:00N 25°27' W 080°03'5 9.0
2018-May-14 05:29N 25°32' W 080°03'5 9.3
2018-May-14 05:00N 25°36' W 080°03'5 9.9
2018-May-14 04:30N 25°41' W 080°03'5 9.9
2018-May-14 04:00N 25°46' W 080°03'5 9.7
2018-May-14 03:30N 25°51' W 080°03'5 9.0
2018-May-14 03:00N 25°56' W 080°03'5 9.6
2018-May-14 02:30N 26°00' W 080°02'5 9.6
2018-May-14 02:00N 26°05' W 080°02'5 9.2
2018-May-14 01:30N 26°10' W 080°01'5 9.4
2018-May-14 01:00N 26°14' W 080°01'5 9.6
2018-May-14 00:30N 26°19' W 080°00'5 9.1
2018-May-14 00:00N 26°24' W 079°60'5 9.1
2018-May-13 23:29N 26°28' W 079°59'4 8.8
2018-May-13 23:00N 26°33' W 079°58'4 8.7
2018-May-13 22:30N 26°37' W 079°58'4 9.0
2018-May-13 22:00N 26°41' W 079°58'5 9.4
2018-May-13 21:30N 26°46' W 079°57'5 9.8
2018-May-13 20:57N 26°51' W 079°57'511.0
2018-May-13 20:30N 26°56' W 079°58'510.8
2018-May-13 20:00N 27°01' W 079°59'17811.4
2018-May-13 04:24N 29°57' W 080°26'2111.4
2018-May-13 02:33N 30°18' W 080°23'4810.2
2018-May-12 21:48N 31°04' W 080°04'410.5
2018-May-12 21:27N 31°07' W 080°02'1710.7
2018-May-12 19:53N 31°23' W 079°56'411.0
2018-May-12 19:29N 31°27' W 079°55'711.1
2018-May-12 18:49N 31°34' W 079°52'611.4
2018-May-12 18:19N 31°40' W 079°50'411.4
2018-May-12 18:00N 31°43' W 079°49'611.6
2018-May-12 17:30N 31°49' W 079°47'611.7
2018-May-12 17:00N 31°55' W 079°46'611.7
2018-May-12 16:30N 32°00' W 079°45'611.7
2018-May-12 16:00N 32°06' W 079°44'611.7
2018-May-12 15:30N 32°12' W 079°42'711.7
2018-May-12 14:57N 32°18' W 079°40'1211.7
2018-May-12 13:53N 32°31' W 079°39'411.5
2018-May-12 13:30N 32°35' W 079°39'611.7
2018-May-12 13:00N 32°40' W 079°43'612.0
2018-May-12 12:30N 32°43' W 079°49'611.7
2018-May-12 12:00N 32°47' W 079°54'5 9.3
2018-May-12 11:30N 32°51' W 079°56'3 6.7
2018-May-12 11:00N 32°54' W 079°57'  
Track history (hours):
 
Tides and Currents Weather Stations Pressure Air Temp Water Temp Dewpoint Dewpoint Depression Visibility Wind Speed Wind Dir Waves Ship Positions

Integrity

Owner: Intrepid Ship Management, jacksonville, FL. More information available from US FCC via Universal Licensing System and Coast Guard Vessel Documentation Center.

Last reported at 2018-May-22 10:53 UTC. Time now 2018-May-22 19:10 UTC.
Position N 29°12' W 094°31'.

Length 208 m; draft 6.8 m.

Type: Towing. MMSI: 368247000.

Date/timePositionNaut miles runAvg speedWind from/ knotsBaromVisibWave heightAir tempDewpointWater temp
2018-May-22 10:53N 29°12' W 094°31'512.1
2018-May-22 10:30N 29°15' W 094°34'611.0
2018-May-22 10:00N 29°19' W 094°39'612.2
2018-May-22 09:30N 29°21' W 094°46'611.1
2018-May-22 09:00N 29°23' W 094°51'2 4.4
2018-May-22 08:30N 29°22' W 094°54'0 0.8
2018-May-22 08:00N 29°22' W 094°54'0 0.0
2018-May-22 07:29N 29°22' W 094°54'0 0.0
2018-May-22 06:59N 29°22' W 094°54'0 0.0
2018-May-22 06:29N 29°22' W 094°54'0 0.0
2018-May-22 05:59N 29°22' W 094°54'0 0.0
2018-May-22 05:29N 29°22' W 094°54'0 0.0
2018-May-22 04:59N 29°22' W 094°54'0 0.0
2018-May-22 04:29N 29°22' W 094°54'0 0.0
2018-May-22 03:59N 29°22' W 094°54'0 0.0
2018-May-21 22:29N 29°22' W 094°54'0 0.0
2018-May-21 21:59N 29°22' W 094°54'0 0.0
2018-May-21 21:29N 29°22' W 094°54'0 0.0
2018-May-21 20:56N 29°22' W 094°54'0 0.0
2018-May-21 20:29N 29°22' W 094°54'0 0.0
2018-May-21 19:59N 29°22' W 094°54'0 0.0
2018-May-21 19:29N 29°22' W 094°54'0 0.0
2018-May-21 18:59N 29°22' W 094°54'0 0.0
2018-May-21 18:30N 29°22' W 094°54'0 0.0
2018-May-21 18:00N 29°22' W 094°54'0 0.0
2018-May-21 17:31N 29°22' W 094°54'0 0.1
2018-May-21 17:00N 29°22' W 094°54'2 4.4
2018-May-21 16:30N 29°23' W 094°52'510.5
2018-May-21 16:00N 29°21' W 094°47'9 2.4
2018-May-21 12:14N 29°19' W 094°36'0 0.0
2018-May-21 11:56N 29°19' W 094°36'0 0.0
2018-May-21 11:17N 29°19' W 094°36'0 0.0
2018-May-21 10:59N 29°19' W 094°36'0 0.0
2018-May-21 10:05N 29°19' W 094°36'0 0.1
2018-May-21 09:59N 29°19' W 094°36'0 0.0
2018-May-21 09:29N 29°19' W 094°36'0 0.0
2018-May-21 08:08N 29°19' W 094°36'0 0.2
2018-May-21 07:47N 29°19' W 094°36'0 0.1
2018-May-21 07:26N 29°19' W 094°36'0 0.0
2018-May-21 06:17N 29°19' W 094°36'0 0.0
2018-May-21 05:59N 29°19' W 094°36'0 0.1
2018-May-21 05:29N 29°19' W 094°36'0 0.0
2018-May-21 04:59N 29°19' W 094°36'0 0.0
2018-May-21 02:32N 29°19' W 094°36'0 0.0
2018-May-21 02:29N 29°19' W 094°36'0 0.0
2018-May-21 01:29N 29°19' W 094°36'0 0.0
2018-May-21 00:41N 29°19' W 094°36'0 0.0
2018-May-21 00:29N 29°19' W 094°36'0 0.0
2018-May-20 23:59N 29°19' W 094°36'0 0.0
2018-May-20 23:29N 29°19' W 094°36'0 0.0
2018-May-20 23:00N 29°19' W 094°36'5 4.8
2018-May-20 21:58N 29°17' W 094°31'4 5.5
2018-May-20 21:19N 29°20' W 094°34'0 0.1
2018-May-20 20:46N 29°20' W 094°34'0 0.0
2018-May-20 19:19N 29°20' W 094°34'0 0.0
2018-May-20 18:10N 29°20' W 094°34'0 0.1
2018-May-20 17:52N 29°20' W 094°34'0 0.0
2018-May-20 17:19N 29°20' W 094°34'0 0.1
2018-May-20 16:55N 29°20' W 094°34'0 0.1
2018-May-20 16:19N 29°20' W 094°34'0 0.0
2018-May-20 15:46N 29°20' W 094°34'0 0.0
2018-May-20 15:19N 29°20' W 094°34'0 0.1
2018-May-20 15:00N 29°20' W 094°34'0 0.1
2018-May-20 14:29N 29°20' W 094°34'  
2018-May-18 06:16N 27°50' W 096°57'0 1.5
2018-May-18 05:58N 27°50' W 096°56'4 7.9
2018-May-18 05:30N 27°47' W 096°54'611.6
2018-May-18 05:00N 27°44' W 096°48'611.7
2018-May-18 04:30N 27°41' W 096°43'611.8
2018-May-18 04:00N 27°38' W 096°37'611.9
2018-May-18 03:30N 27°35' W 096°31'611.4
2018-May-18 02:59N 27°34' W 096°24'611.7
2018-May-18 02:29N 27°35' W 096°18'611.6
2018-May-18 02:00N 27°36' W 096°12'611.8
2018-May-18 01:30N 27°36' W 096°05'611.7
2018-May-18 01:00N 27°37' W 095°59'1811.6
2018-May-17 23:30N 27°38' W 095°39'3511.6
2018-May-17 20:30N 27°41' W 094°60'611.5
2018-May-17 20:00N 27°41' W 094°53'611.4
2018-May-17 19:30N 27°42' W 094°47'611.4
2018-May-17 19:00N 27°42' W 094°40'611.4
2018-May-17 18:30N 27°43' W 094°34'611.4
2018-May-17 18:00N 27°43' W 094°28'611.4
2018-May-17 17:30N 27°43' W 094°21'611.3
2018-May-17 16:59N 27°44' W 094°15'511.4
2018-May-17 16:30N 27°44' W 094°09'611.2
2018-May-17 15:56N 27°45' W 094°01'511.5
2018-May-17 15:30N 27°45' W 093°56'911.4
2018-May-17 14:43N 27°46' W 093°46'311.4
2018-May-17 14:28N 27°46' W 093°42'611.3
2018-May-17 13:58N 27°47' W 093°36'511.5
2018-May-17 13:30N 27°47' W 093°30'611.7
2018-May-17 13:00N 27°48' W 093°24'611.9
2018-May-17 12:28N 27°48' W 093°16'1912.1
2018-May-17 10:54N 27°49' W 092°55'511.9
2018-May-17 10:30N 27°50' W 092°50'611.9
2018-May-17 09:59N 27°50' W 092°43'712.2
2018-May-17 09:25N 27°49' W 092°35'512.2
2018-May-17 09:00N 27°48' W 092°29'612.4
2018-May-17 08:30N 27°46' W 092°23'612.5
2018-May-17 08:00N 27°44' W 092°16'612.5
2018-May-17 07:30N 27°41' W 092°10'612.5
2018-May-17 07:00N 27°39' W 092°03'612.4
2018-May-17 06:30N 27°37' W 091°56'612.1
2018-May-17 06:00N 27°36' W 091°50'611.8
2018-May-17 05:30N 27°34' W 091°43'611.7
2018-May-17 04:58N 27°32' W 091°37'511.7
2018-May-17 04:30N 27°31' W 091°31'611.6
2018-May-17 03:59N 27°29' W 091°24'511.5
2018-May-17 03:30N 27°27' W 091°18'611.3
2018-May-17 02:57N 27°25' W 091°12'511.0
2018-May-17 02:29N 27°23' W 091°06'511.0
2018-May-17 02:00N 27°21' W 091°01'  
2018-May-14 07:41N 25°14' W 080°06'2 8.1
2018-May-14 07:28N 25°16' W 080°05'4 8.0
2018-May-14 07:00N 25°19' W 080°04'4 7.8
2018-May-14 06:30N 25°23' W 080°02'4 8.6
2018-May-14 06:00N 25°27' W 080°03'5 9.0
2018-May-14 05:29N 25°32' W 080°03'5 9.3
2018-May-14 05:00N 25°36' W 080°03'5 9.9
2018-May-14 04:30N 25°41' W 080°03'5 9.9
2018-May-14 04:00N 25°46' W 080°03'5 9.7
2018-May-14 03:30N 25°51' W 080°03'5 9.0
2018-May-14 03:00N 25°56' W 080°03'5 9.6
2018-May-14 02:30N 26°00' W 080°02'5 9.6
2018-May-14 02:00N 26°05' W 080°02'5 9.2
2018-May-14 01:30N 26°10' W 080°01'5 9.4
2018-May-14 01:00N 26°14' W 080°01'5 9.6
2018-May-14 00:30N 26°19' W 080°00'5 9.1
2018-May-14 00:00N 26°24' W 079°60'5 9.1
2018-May-13 23:29N 26°28' W 079°59'4 8.8
2018-May-13 23:00N 26°33' W 079°58'4 8.7
2018-May-13 22:30N 26°37' W 079°58'4 9.0
2018-May-13 22:00N 26°41' W 079°58'5 9.4
2018-May-13 21:30N 26°46' W 079°57'5 9.8
2018-May-13 20:57N 26°51' W 079°57'511.0
2018-May-13 20:30N 26°56' W 079°58'510.8
2018-May-13 20:00N 27°01' W 079°59'17811.4
2018-May-13 04:24N 29°57' W 080°26'2111.4
2018-May-13 02:33N 30°18' W 080°23'4810.2
2018-May-12 21:48N 31°04' W 080°04'410.5
2018-May-12 21:27N 31°07' W 080°02'1710.7
2018-May-12 19:53N 31°23' W 079°56'411.0
2018-May-12 19:29N 31°27' W 079°55'711.1
2018-May-12 18:49N 31°34' W 079°52'611.4
2018-May-12 18:19N 31°40' W 079°50'411.4
2018-May-12 18:00N 31°43' W 079°49'611.6
2018-May-12 17:30N 31°49' W 079°47'611.7
2018-May-12 17:00N 31°55' W 079°46'611.7
2018-May-12 16:30N 32°00' W 079°45'611.7
2018-May-12 16:00N 32°06' W 079°44'611.7
2018-May-12 15:30N 32°12' W 079°42'711.7
2018-May-12 14:57N 32°18' W 079°40'1211.7
2018-May-12 13:53N 32°31' W 079°39'411.5
2018-May-12 13:30N 32°35' W 079°39'611.7
2018-May-12 13:00N 32°40' W 079°43'612.0
2018-May-12 12:30N 32°43' W 079°49'611.7
2018-May-12 12:00N 32°47' W 079°54'5 9.3
2018-May-12 11:30N 32°51' W 079°56'3 6.7
2018-May-12 11:00N 32°54' W 079°57'  

Dump ship's entire track history